createdAt,value
2023-04-15T00:00:07.832Z,59.02
2023-04-15T00:01:07.864Z,58.60
2023-04-15T00:02:07.953Z,58.85
2023-04-15T00:03:07.880Z,58.94
2023-04-15T00:04:07.880Z,58.90
2023-04-15T00:05:07.882Z,60.06
2023-04-15T00:06:07.827Z,60.42
2023-04-15T00:07:07.792Z,59.79
2023-04-15T00:08:07.823Z,59.34
2023-04-15T00:09:07.860Z,59.18
2023-04-15T00:10:07.988Z,59.04
2023-04-15T00:11:08.042Z,59.05
2023-04-15T00:12:08.048Z,59.05
2023-04-15T00:13:08.084Z,59.25
2023-04-15T00:14:08.105Z,59.52
2023-04-15T00:15:08.513Z,59.50
2023-04-15T00:16:08.251Z,60.11
2023-04-15T00:17:08.281Z,60.53
2023-04-15T00:18:08.397Z,60.88
2023-04-15T00:19:08.579Z,61.35
2023-04-15T00:20:08.372Z,61.26
2023-04-15T00:21:08.404Z,61.07
2023-04-15T00:22:08.472Z,61.72
2023-04-15T00:23:08.518Z,61.82
2023-04-15T00:24:08.595Z,61.55
2023-04-15T00:25:08.638Z,61.50
2023-04-15T00:26:08.702Z,61.27
2023-04-15T00:27:08.715Z,60.60
2023-04-15T00:28:08.778Z,60.44
2023-04-15T00:29:08.830Z,59.86
2023-04-15T00:30:08.872Z,59.52
2023-04-15T00:31:08.949Z,59.15
2023-04-15T00:32:08.952Z,58.87
2023-04-15T00:33:09.005Z,58.52
2023-04-15T00:34:09.011Z,58.16
2023-04-15T00:35:09.010Z,57.92
2023-04-15T00:36:09.024Z,57.87
2023-04-15T00:37:09.048Z,57.64
2023-04-15T00:38:09.135Z,57.74
2023-04-15T00:39:09.252Z,58.40
2023-04-15T00:40:09.372Z,59.28
2023-04-15T00:41:09.471Z,60.21
2023-04-15T00:42:09.566Z,60.73
2023-04-15T00:43:09.654Z,61.08
2023-04-15T00:44:09.710Z,61.52
2023-04-15T00:45:09.809Z,61.96
2023-04-15T00:46:09.928Z,61.79
2023-04-15T00:47:09.921Z,61.53
2023-04-15T00:48:09.969Z,61.26
2023-04-15T00:49:10.031Z,61.41
2023-04-15T00:50:10.097Z,61.78
2023-04-15T00:51:10.193Z,61.62
2023-04-15T00:52:10.207Z,61.29
2023-04-15T00:53:10.268Z,60.88
2023-04-15T00:54:10.340Z,61.12
2023-04-15T00:55:10.325Z,61.28
2023-04-15T00:56:10.407Z,61.41
2023-04-15T00:57:10.497Z,61.83
2023-04-15T00:58:10.503Z,62.06
2023-04-15T00:59:10.552Z,62.15
2023-04-15T01:00:10.626Z,62.31
2023-04-15T01:01:10.785Z,62.63
2023-04-15T01:02:10.809Z,62.63
2023-04-15T01:03:10.993Z,62.84
2023-04-15T01:04:11.015Z,63.12
2023-04-15T01:05:10.913Z,62.78
2023-04-15T01:06:11.067Z,63.01
2023-04-15T01:07:11.094Z,63.02
2023-04-15T01:08:11.102Z,62.51
2023-04-15T01:09:11.168Z,62.45
2023-04-15T01:10:11.224Z,62.29
2023-04-15T01:11:11.244Z,62.04
2023-04-15T01:12:11.347Z,61.68
2023-04-15T01:13:11.327Z,61.59
2023-04-15T01:14:11.436Z,61.43
2023-04-15T01:15:11.457Z,61.64
2023-04-15T01:16:11.521Z,62.20
2023-04-15T01:17:11.562Z,62.46
2023-04-15T01:18:11.587Z,62.54
2023-04-15T01:19:11.608Z,62.45
2023-04-15T01:20:11.704Z,62.84
2023-04-15T01:21:11.770Z,62.59
2023-04-15T01:22:11.801Z,62.89
2023-04-15T01:23:11.763Z,62.48
2023-04-15T01:24:12.161Z,62.27
2023-04-15T01:25:11.929Z,61.92
2023-04-15T01:26:12.016Z,61.41
2023-04-15T01:27:12.038Z,61.22
2023-04-15T01:28:12.069Z,61.09
2023-04-15T01:29:12.128Z,60.90
2023-04-15T01:30:12.174Z,60.57
2023-04-15T01:31:12.372Z,60.86
2023-04-15T01:32:12.288Z,61.38
2023-04-15T01:33:12.321Z,61.63
2023-04-15T01:34:12.372Z,62.25
2023-04-15T01:35:12.399Z,62.39
2023-04-15T01:36:12.517Z,62.04
2023-04-15T01:37:12.517Z,61.71
2023-04-15T01:38:12.557Z,61.84
2023-04-15T01:39:12.612Z,61.89
2023-04-15T01:40:12.656Z,61.74
2023-04-15T01:41:12.684Z,61.15
2023-04-15T01:42:12.677Z,60.72
2023-04-15T01:43:12.760Z,60.45
2023-04-15T01:44:12.860Z,60.13
2023-04-15T01:45:12.867Z,59.85
2023-04-15T01:46:12.914Z,59.68
2023-04-15T01:47:12.907Z,59.49
2023-04-15T01:48:13.191Z,59.11
2023-04-15T01:49:12.918Z,58.90
2023-04-15T01:50:12.937Z,58.87
2023-04-15T01:51:12.948Z,59.41
2023-04-15T01:52:12.924Z,59.95
2023-04-15T01:53:13.043Z,60.15
2023-04-15T01:54:13.088Z,60.71
2023-04-15T01:55:13.122Z,61.19
2023-04-15T01:56:14.763Z,60.94
2023-04-15T01:57:13.203Z,60.51
2023-04-15T01:58:13.188Z,60.15
2023-04-15T01:59:13.187Z,59.50
2023-04-15T02:00:13.154Z,59.44
2023-04-15T02:01:13.179Z,59.13
2023-04-15T02:02:13.149Z,58.89
2023-04-15T02:03:13.217Z,58.56
2023-04-15T02:04:13.133Z,58.44
2023-04-15T02:05:13.120Z,58.46
2023-04-15T02:06:13.153Z,58.64
2023-04-15T02:07:13.085Z,58.76
2023-04-15T02:08:13.091Z,58.94
2023-04-15T02:09:13.143Z,59.24
2023-04-15T02:10:13.101Z,59.70
2023-04-15T02:11:13.091Z,59.78
2023-04-15T02:12:13.085Z,60.07
2023-04-15T02:13:13.093Z,60.06
2023-04-15T02:14:13.050Z,59.88
2023-04-15T02:15:13.087Z,59.56
2023-04-15T02:16:13.092Z,59.26
2023-04-15T02:17:13.075Z,58.89
2023-04-15T02:18:13.036Z,58.67
2023-04-15T02:19:13.026Z,58.32
2023-04-15T02:20:13.056Z,58.42
2023-04-15T02:21:13.048Z,58.01
2023-04-15T02:22:13.001Z,57.99
2023-04-15T02:23:13.056Z,58.51
2023-04-15T02:24:12.986Z,59.37
2023-04-15T02:25:12.976Z,59.95
2023-04-15T02:26:13.015Z,60.42
2023-04-15T02:27:12.989Z,61.06
2023-04-15T02:28:12.993Z,61.01
2023-04-15T02:29:13.005Z,61.17
2023-04-15T02:30:12.963Z,60.74
2023-04-15T02:31:12.997Z,60.19
2023-04-15T02:32:13.161Z,59.56
2023-04-15T02:33:12.951Z,59.10
2023-04-15T02:34:12.961Z,58.87
2023-04-15T02:35:12.971Z,58.71
2023-04-15T02:36:12.938Z,58.53
2023-04-15T02:37:12.935Z,58.22
2023-04-15T02:38:12.908Z,57.95
2023-04-15T02:39:12.994Z,57.71
2023-04-15T02:40:13.011Z,57.62
2023-04-15T02:41:13.092Z,58.13
2023-04-15T02:42:13.109Z,58.26
2023-04-15T02:43:13.180Z,58.24
2023-04-15T02:44:13.172Z,58.41
2023-04-15T02:45:13.270Z,58.50
2023-04-15T02:46:13.360Z,58.70
2023-04-15T02:47:13.321Z,58.47
2023-04-15T02:48:13.367Z,58.38
2023-04-15T02:49:13.427Z,58.36
2023-04-15T02:50:13.467Z,58.15
2023-04-15T02:51:13.606Z,58.05
2023-04-15T02:52:13.569Z,58.01
2023-04-15T02:53:13.634Z,57.99
2023-04-15T02:54:13.685Z,57.90
2023-04-15T02:55:13.745Z,57.88
2023-04-15T02:56:13.802Z,58.28
2023-04-15T02:57:13.830Z,58.56
2023-04-15T02:58:13.933Z,58.95
2023-04-15T02:59:13.866Z,59.18
2023-04-15T03:00:13.875Z,58.81
2023-04-15T03:01:13.991Z,58.65
2023-04-15T03:02:14.047Z,58.44
2023-04-15T03:03:14.218Z,58.49
2023-04-15T03:04:14.067Z,58.77
2023-04-15T03:05:14.084Z,58.60
2023-04-15T03:06:14.142Z,58.47
2023-04-15T03:07:14.192Z,58.30
2023-04-15T03:08:14.204Z,58.29
2023-04-15T03:09:14.301Z,58.07
2023-04-15T03:10:14.318Z,58.22
2023-04-15T03:11:14.372Z,58.27
2023-04-15T03:12:14.429Z,58.14
2023-04-15T03:13:14.529Z,58.02
2023-04-15T03:14:14.549Z,58.03
2023-04-15T03:15:14.567Z,57.94
2023-04-15T03:16:14.746Z,57.98
2023-04-15T03:17:14.724Z,57.73
2023-04-15T03:18:14.728Z,57.73
2023-04-15T03:19:14.789Z,57.98
2023-04-15T03:20:14.915Z,58.08
2023-04-15T03:21:14.928Z,57.94
2023-04-15T03:22:14.974Z,57.65
2023-04-15T03:23:15.040Z,57.59
2023-04-15T03:24:15.129Z,57.60
2023-04-15T03:25:15.123Z,57.51
2023-04-15T03:26:15.200Z,57.65
2023-04-15T03:27:15.201Z,57.69
2023-04-15T03:28:15.294Z,57.70
2023-04-15T03:29:15.313Z,57.88
2023-04-15T03:30:15.390Z,58.09
2023-04-15T03:31:15.598Z,58.10
2023-04-15T03:32:15.551Z,58.29
2023-04-15T03:33:15.630Z,58.45
2023-04-15T03:34:15.653Z,58.42
2023-04-15T03:35:15.689Z,58.76
2023-04-15T03:36:15.788Z,59.26
2023-04-15T03:37:15.820Z,60.16
2023-04-15T03:38:15.870Z,60.46
2023-04-15T03:39:15.892Z,60.08
2023-04-15T03:40:15.986Z,60.28
2023-04-15T03:41:16.007Z,60.41
2023-04-15T03:42:16.025Z,60.16
2023-04-15T03:43:16.035Z,60.02
2023-04-15T03:44:16.090Z,59.77
2023-04-15T03:45:16.150Z,59.69
2023-04-15T03:46:16.180Z,59.36
2023-04-15T03:47:16.185Z,59.28
2023-04-15T03:48:18.178Z,59.07
2023-04-15T03:49:16.261Z,58.77
2023-04-15T03:50:16.303Z,58.20
2023-04-15T03:51:16.373Z,58.04
2023-04-15T03:52:16.403Z,57.91
2023-04-15T03:53:16.407Z,57.69
2023-04-15T03:54:16.393Z,57.61
2023-04-15T03:55:16.433Z,57.61
2023-04-15T03:56:16.535Z,57.93
2023-04-15T03:57:16.554Z,58.23
2023-04-15T03:58:16.581Z,58.01
2023-04-15T03:59:16.620Z,57.99
2023-04-15T04:00:16.701Z,57.85
2023-04-15T04:01:16.773Z,57.74
2023-04-15T04:02:16.812Z,57.75
2023-04-15T04:03:16.860Z,58.04
2023-04-15T04:04:16.935Z,58.97
2023-04-15T04:05:16.813Z,59.55
2023-04-15T04:06:16.930Z,59.54
2023-04-15T04:07:16.910Z,59.22
2023-04-15T04:08:16.915Z,58.80
2023-04-15T04:09:16.901Z,58.65
2023-04-15T04:10:16.921Z,58.70
2023-04-15T04:11:16.941Z,59.04
2023-04-15T04:12:17.016Z,58.80
2023-04-15T04:13:16.959Z,58.39
2023-04-15T04:14:16.951Z,58.12
2023-04-15T04:15:16.968Z,58.05
2023-04-15T04:16:17.033Z,57.90
2023-04-15T04:17:17.047Z,57.85
2023-04-15T04:18:17.043Z,57.87
2023-04-15T04:19:17.064Z,57.87
2023-04-15T04:20:17.069Z,57.85
2023-04-15T04:21:17.161Z,57.84
2023-04-15T04:22:17.101Z,57.58
2023-04-15T04:23:17.135Z,57.13
2023-04-15T04:24:17.116Z,56.82
2023-04-15T04:25:17.147Z,56.66
2023-04-15T04:26:17.189Z,56.47
2023-04-15T04:27:17.203Z,56.90
2023-04-15T04:28:17.295Z,57.23
2023-04-15T04:29:17.324Z,57.27
2023-04-15T04:30:17.425Z,57.18
2023-04-15T04:31:17.490Z,57.07
2023-04-15T04:32:17.477Z,57.10
2023-04-15T04:33:17.551Z,57.10
2023-04-15T04:34:17.629Z,57.14
2023-04-15T04:35:17.657Z,56.66
2023-04-15T04:36:17.730Z,56.17
2023-04-15T04:37:17.739Z,55.26
2023-04-15T04:38:17.830Z,55.01
2023-04-15T04:39:17.835Z,54.98
2023-04-15T04:40:17.867Z,55.13
2023-04-15T04:41:17.967Z,55.06
2023-04-15T04:42:17.968Z,54.98
2023-04-15T04:43:18.039Z,55.06
2023-04-15T04:44:18.065Z,55.25
2023-04-15T04:45:18.094Z,55.73
2023-04-15T04:46:18.218Z,55.72
2023-04-15T04:47:18.205Z,55.61
2023-04-15T04:48:18.294Z,55.55
2023-04-15T04:49:18.346Z,55.63
2023-04-15T04:50:18.406Z,55.61
2023-04-15T04:51:18.431Z,55.34
2023-04-15T04:52:18.443Z,55.77
2023-04-15T04:53:18.586Z,56.13
2023-04-15T04:54:18.671Z,56.33
2023-04-15T04:55:18.662Z,56.16
2023-04-15T04:56:18.733Z,56.64
2023-04-15T04:57:18.731Z,57.72
2023-04-15T04:58:18.777Z,58.34
2023-04-15T04:59:19.491Z,59.18
2023-04-15T05:00:18.814Z,59.51
2023-04-15T05:01:18.874Z,59.61
2023-04-15T05:02:18.963Z,59.23
2023-04-15T05:03:19.067Z,59.29
2023-04-15T05:04:19.099Z,59.09
2023-04-15T05:05:18.865Z,58.51
2023-04-15T05:06:18.908Z,58.12
2023-04-15T05:07:18.921Z,57.75
2023-04-15T05:08:18.963Z,57.41
2023-04-15T05:09:19.002Z,57.10
2023-04-15T05:10:18.973Z,56.94
2023-04-15T05:11:18.980Z,56.75
2023-04-15T05:12:18.992Z,56.60
2023-04-15T05:13:18.993Z,56.53
2023-04-15T05:14:19.069Z,55.82
2023-04-15T05:15:19.048Z,55.69
2023-04-15T05:16:19.154Z,55.61
2023-04-15T05:17:19.048Z,55.54
2023-04-15T05:18:19.038Z,55.58
2023-04-15T05:19:19.143Z,55.81
2023-04-15T05:20:19.162Z,55.61
2023-04-15T05:21:19.218Z,55.24
2023-04-15T05:22:19.259Z,55.09
2023-04-15T05:23:19.243Z,55.41
2023-04-15T05:24:19.255Z,55.43
2023-04-15T05:25:19.278Z,55.43
2023-04-15T05:26:19.291Z,55.47
2023-04-15T05:27:19.298Z,55.51
2023-04-15T05:28:19.299Z,55.49
2023-04-15T05:29:19.317Z,55.15
2023-04-15T05:30:19.341Z,54.90
2023-04-15T05:31:19.440Z,54.83
2023-04-15T05:32:19.396Z,54.85
2023-04-15T05:33:19.396Z,54.83
2023-04-15T05:34:19.358Z,54.94
2023-04-15T05:35:19.359Z,55.04
2023-04-15T05:36:19.375Z,55.08
2023-04-15T05:37:19.341Z,54.71
2023-04-15T05:38:19.398Z,54.69
2023-04-15T05:39:19.410Z,54.62
2023-04-15T05:40:19.444Z,55.08
2023-04-15T05:41:19.990Z,55.97
2023-04-15T05:42:19.444Z,56.40
2023-04-15T05:43:19.482Z,56.95
2023-04-15T05:44:19.487Z,57.17
2023-04-15T05:45:19.550Z,56.70
2023-04-15T05:46:19.706Z,56.67
2023-04-15T05:47:19.702Z,57.05
2023-04-15T05:48:19.769Z,56.52
2023-04-15T05:49:19.801Z,56.66
2023-04-15T05:50:19.870Z,56.15
2023-04-15T05:51:19.943Z,55.72
2023-04-15T05:52:19.959Z,55.16
2023-04-15T05:53:20.056Z,54.80
2023-04-15T05:54:20.347Z,53.38
2023-04-15T05:55:20.163Z,52.23
2023-04-15T05:56:20.227Z,52.17
2023-04-15T05:57:20.229Z,52.06
2023-04-15T05:58:20.275Z,52.57
2023-04-15T05:59:20.322Z,52.07
2023-04-15T06:00:20.373Z,51.91
2023-04-15T06:01:20.438Z,51.68
2023-04-15T06:02:20.651Z,51.58
2023-04-15T06:03:20.607Z,51.23
2023-04-15T06:04:20.633Z,50.78
2023-04-15T06:05:20.639Z,50.58
2023-04-15T06:06:20.692Z,50.22
2023-04-15T06:07:20.712Z,50.25
2023-04-15T06:08:20.730Z,50.23
2023-04-15T06:09:20.760Z,49.77
2023-04-15T06:10:20.808Z,49.46
2023-04-15T06:11:20.909Z,49.80
2023-04-15T06:12:20.849Z,49.69
2023-04-15T06:13:20.921Z,49.68
2023-04-15T06:14:20.903Z,49.48
2023-04-15T06:15:20.967Z,49.33
2023-04-15T06:16:21.023Z,48.94
2023-04-15T06:17:21.048Z,49.63
2023-04-15T06:18:21.038Z,49.27
2023-04-15T06:19:21.105Z,48.83
2023-04-15T06:20:21.048Z,49.01
2023-04-15T06:21:21.109Z,49.52
2023-04-15T06:22:21.056Z,48.13
2023-04-15T06:23:21.043Z,47.85
2023-04-15T06:24:21.063Z,47.98
2023-04-15T06:25:21.040Z,48.20
2023-04-15T06:26:21.064Z,46.63
2023-04-15T06:27:21.055Z,45.71
2023-04-15T06:28:21.081Z,46.03
2023-04-15T06:29:21.029Z,46.40
2023-04-15T06:30:22.937Z,47.12
2023-04-15T06:31:21.057Z,46.73
2023-04-15T06:32:21.054Z,46.49
2023-04-15T06:33:21.208Z,45.87
2023-04-15T06:34:20.981Z,45.20
2023-04-15T06:35:20.966Z,44.86
2023-04-15T06:36:21.001Z,45.13
2023-04-15T06:37:20.944Z,45.17
2023-04-15T06:38:20.993Z,44.90
2023-04-15T06:39:20.958Z,44.48
2023-04-15T06:40:20.959Z,43.72
2023-04-15T06:41:20.961Z,43.19
2023-04-15T06:42:20.976Z,43.75
2023-04-15T06:43:20.997Z,44.03
2023-04-15T06:44:20.914Z,43.91
2023-04-15T06:45:20.893Z,43.25
2023-04-15T06:46:21.370Z,42.26
2023-04-15T06:47:20.899Z,42.31
2023-04-15T06:48:20.900Z,41.99
2023-04-15T06:49:20.875Z,41.86
2023-04-15T06:50:20.885Z,42.11
2023-04-15T06:51:20.878Z,42.26
2023-04-15T06:52:20.879Z,42.54
2023-04-15T06:53:20.857Z,42.76
2023-04-15T06:54:20.836Z,42.72
2023-04-15T06:55:20.833Z,43.34
2023-04-15T06:56:20.872Z,43.72
2023-04-15T06:57:20.880Z,43.86
2023-04-15T06:58:20.897Z,43.61
2023-04-15T06:59:20.804Z,42.83
2023-04-15T07:00:20.807Z,42.77
2023-04-15T07:01:21.657Z,42.68
2023-04-15T07:02:20.860Z,42.42
2023-04-15T07:03:20.771Z,42.96
2023-04-15T07:04:20.869Z,43.57
2023-04-15T07:05:20.777Z,43.80
2023-04-15T07:06:20.800Z,44.14
2023-04-15T07:07:20.760Z,44.30
2023-04-15T07:08:20.847Z,44.10
2023-04-15T07:09:20.702Z,44.35
2023-04-15T07:10:20.762Z,44.63
2023-04-15T07:11:20.727Z,45.17
2023-04-15T07:12:20.730Z,45.22
2023-04-15T07:13:20.688Z,44.42
2023-04-15T07:14:20.708Z,44.31
2023-04-15T07:15:20.732Z,44.20
2023-04-15T07:16:20.834Z,43.90
2023-04-15T07:17:20.695Z,44.10
2023-04-15T07:18:20.673Z,43.66
2023-04-15T07:19:20.667Z,43.20
2023-04-15T07:20:20.694Z,43.79
2023-04-15T07:21:20.706Z,44.28
2023-04-15T07:22:20.666Z,44.49
2023-04-15T07:23:20.762Z,43.96
2023-04-15T07:24:20.599Z,43.26
2023-04-15T07:25:20.635Z,42.89
2023-04-15T07:26:20.652Z,42.42
2023-04-15T07:27:20.604Z,42.18
2023-04-15T07:28:20.607Z,41.85
2023-04-15T07:29:20.594Z,41.67
2023-04-15T07:30:20.666Z,41.46
2023-04-15T07:31:20.718Z,42.21
2023-04-15T07:32:20.726Z,42.47
2023-04-15T07:33:20.687Z,42.43
2023-04-15T07:34:20.686Z,41.90
2023-04-15T07:35:20.703Z,41.53
2023-04-15T07:36:20.712Z,41.17
2023-04-15T07:37:20.874Z,40.77
2023-04-15T07:38:20.761Z,40.41
2023-04-15T07:39:20.773Z,40.26
2023-04-15T07:40:20.837Z,40.09
2023-04-15T07:41:20.888Z,40.54
2023-04-15T07:42:21.911Z,41.35
2023-04-15T07:43:21.019Z,41.89
2023-04-15T07:44:21.257Z,42.49
2023-04-15T07:45:21.091Z,41.57
2023-04-15T07:46:21.229Z,42.36
2023-04-15T07:47:21.172Z,42.21
2023-04-15T07:48:21.222Z,42.66
2023-04-15T07:49:21.322Z,42.41
2023-04-15T07:50:21.340Z,42.12
2023-04-15T07:51:21.373Z,41.57
2023-04-15T07:52:21.385Z,41.15
2023-04-15T07:53:21.393Z,40.75
2023-04-15T07:54:21.382Z,40.85
2023-04-15T07:55:21.450Z,41.52
2023-04-15T07:56:21.467Z,40.87
2023-04-15T07:57:21.478Z,40.54
2023-04-15T07:58:21.482Z,40.33
2023-04-15T07:59:21.574Z,40.34
2023-04-15T08:00:21.590Z,40.16
2023-04-15T08:01:21.622Z,39.88
2023-04-15T08:02:21.794Z,39.81
2023-04-15T08:03:21.728Z,39.90
2023-04-15T08:04:21.935Z,40.01
2023-04-15T08:05:21.807Z,40.04
2023-04-15T08:06:21.859Z,39.92
2023-04-15T08:07:21.942Z,39.13
2023-04-15T08:08:21.898Z,39.06
2023-04-15T08:09:21.970Z,39.26
2023-04-15T08:10:22.019Z,39.36
2023-04-15T08:11:22.019Z,39.32
2023-04-15T08:12:22.062Z,40.37
2023-04-15T08:13:22.034Z,40.65
2023-04-15T08:14:22.062Z,40.21
2023-04-15T08:15:22.093Z,40.13
2023-04-15T08:16:22.169Z,40.64
2023-04-15T08:17:22.172Z,40.55
2023-04-15T08:18:22.181Z,40.71
2023-04-15T08:19:22.192Z,40.93
2023-04-15T08:20:22.253Z,41.14
2023-04-15T08:21:22.276Z,41.00
2023-04-15T08:22:22.453Z,40.93
2023-04-15T08:23:22.314Z,41.63
2023-04-15T08:24:22.391Z,40.89
2023-04-15T08:25:22.443Z,41.01
2023-04-15T08:26:22.501Z,42.98
2023-04-15T08:27:22.497Z,44.16
2023-04-15T08:28:22.538Z,43.56
2023-04-15T08:29:22.566Z,42.95
2023-04-15T08:30:22.629Z,44.69
2023-04-15T08:31:22.733Z,45.42
2023-04-15T08:32:22.770Z,45.74
2023-04-15T08:33:22.665Z,45.83
2023-04-15T08:34:22.694Z,45.36
2023-04-15T08:35:22.717Z,45.13
2023-04-15T08:36:22.685Z,44.91
2023-04-15T08:37:22.683Z,44.77
2023-04-15T08:38:22.678Z,44.52
2023-04-15T08:39:22.698Z,44.11
2023-04-15T08:40:22.701Z,44.27
2023-04-15T08:41:22.724Z,43.96
2023-04-15T08:42:22.702Z,43.62
2023-04-15T08:43:22.710Z,43.25
2023-04-15T08:44:22.729Z,42.77
2023-04-15T08:45:22.743Z,42.49
2023-04-15T08:46:22.836Z,42.11
2023-04-15T08:47:22.894Z,41.90
2023-04-15T08:48:22.825Z,40.83
2023-04-15T08:49:22.861Z,39.82
2023-04-15T08:50:22.909Z,39.17
2023-04-15T08:51:24.560Z,39.35
2023-04-15T08:52:23.648Z,40.17
2023-04-15T08:53:23.018Z,40.34
2023-04-15T08:54:22.995Z,39.79
2023-04-15T08:55:22.957Z,39.77
2023-04-15T08:56:22.939Z,39.83
2023-04-15T08:57:22.956Z,40.13
2023-04-15T08:58:22.983Z,40.03
2023-04-15T08:59:23.004Z,39.97
2023-04-15T09:00:23.047Z,39.79
2023-04-15T09:01:23.171Z,39.72
2023-04-15T09:02:23.217Z,39.78
2023-04-15T09:03:23.274Z,40.14
2023-04-15T09:04:23.284Z,41.18
2023-04-15T09:05:24.059Z,40.28
2023-04-15T09:06:23.322Z,39.73
2023-04-15T09:07:23.335Z,39.59
2023-04-15T09:08:23.505Z,39.75
2023-04-15T09:09:23.324Z,40.09
2023-04-15T09:10:23.303Z,40.25
2023-04-15T09:11:23.325Z,41.28
2023-04-15T09:12:23.336Z,42.03
2023-04-15T09:13:23.245Z,41.91
2023-04-15T09:14:23.251Z,41.79
2023-04-15T09:15:23.265Z,42.26
2023-04-15T09:16:23.283Z,42.62
2023-04-15T09:17:23.286Z,42.44
2023-04-15T09:18:23.323Z,41.79
2023-04-15T09:19:23.246Z,41.29
2023-04-15T09:20:23.229Z,41.06
2023-04-15T09:21:23.203Z,39.80
2023-04-15T09:22:23.270Z,39.24
2023-04-15T09:23:23.290Z,38.73
2023-04-15T09:24:23.315Z,38.54
2023-04-15T09:25:23.283Z,38.69
2023-04-15T09:26:23.385Z,38.98
2023-04-15T09:27:23.348Z,38.75
2023-04-15T09:28:23.448Z,38.85
2023-04-15T09:29:23.437Z,38.82
2023-04-15T09:30:23.440Z,38.41
2023-04-15T09:31:23.535Z,37.77
2023-04-15T09:32:23.592Z,37.62
2023-04-15T09:33:23.521Z,37.10
2023-04-15T09:34:23.555Z,37.51
2023-04-15T09:35:23.537Z,38.04
2023-04-15T09:36:23.552Z,37.68
2023-04-15T09:37:32.086Z,37.27
2023-04-15T09:38:24.608Z,37.59
2023-04-15T09:39:23.593Z,37.43
2023-04-15T09:40:23.541Z,37.57
2023-04-15T09:41:23.561Z,38.00
2023-04-15T09:42:23.551Z,37.82
2023-04-15T09:43:23.545Z,38.16
2023-04-15T09:44:23.509Z,38.01
2023-04-15T09:45:24.520Z,37.51
2023-04-15T09:46:23.595Z,36.30
2023-04-15T09:47:23.506Z,36.26
2023-04-15T09:48:23.479Z,37.15
2023-04-15T09:49:23.495Z,37.11
2023-04-15T09:50:23.452Z,37.51
2023-04-15T09:51:23.551Z,37.52
2023-04-15T09:52:23.576Z,37.01
2023-04-15T09:53:23.576Z,36.23
2023-04-15T09:54:23.597Z,37.05
2023-04-15T09:55:23.663Z,38.60
2023-04-15T09:56:23.724Z,39.27
2023-04-15T09:57:23.710Z,39.48
2023-04-15T09:58:23.679Z,38.92
2023-04-15T09:59:23.669Z,38.68
2023-04-15T10:00:23.728Z,39.58
2023-04-15T10:01:23.825Z,39.04
2023-04-15T10:02:23.931Z,38.82
2023-04-15T10:03:24.059Z,38.85
2023-04-15T10:04:23.930Z,39.04
2023-04-15T10:05:23.837Z,38.95
2023-04-15T10:06:23.826Z,39.08
2023-04-15T10:07:23.895Z,39.53
2023-04-15T10:08:23.971Z,39.68
2023-04-15T10:09:23.946Z,39.78
2023-04-15T10:10:23.955Z,40.10
2023-04-15T10:11:24.049Z,40.05
2023-04-15T10:12:24.118Z,40.51
2023-04-15T10:13:24.143Z,40.30
2023-04-15T10:14:24.151Z,40.41
2023-04-15T10:15:24.093Z,39.56
2023-04-15T10:16:24.174Z,39.34
2023-04-15T10:17:24.239Z,38.76
2023-04-15T10:18:24.255Z,38.25
2023-04-15T10:19:24.290Z,38.23
2023-04-15T10:20:24.285Z,38.20
2023-04-15T10:21:24.305Z,37.91
2023-04-15T10:22:24.328Z,37.45
2023-04-15T10:23:24.329Z,37.01
2023-04-15T10:24:24.318Z,36.65
2023-04-15T10:25:24.341Z,36.27
2023-04-15T10:26:24.414Z,36.29
2023-04-15T10:27:24.465Z,36.31
2023-04-15T10:28:24.447Z,36.68
2023-04-15T10:29:24.452Z,37.05
2023-04-15T10:30:24.517Z,37.34
2023-04-15T10:31:24.555Z,36.93
2023-04-15T10:32:24.627Z,36.34
2023-04-15T10:33:24.567Z,36.08
2023-04-15T10:34:24.644Z,35.17
2023-04-15T10:35:24.643Z,34.58
2023-04-15T10:36:24.679Z,34.16
2023-04-15T10:37:24.780Z,34.02
2023-04-15T10:38:24.714Z,33.68
2023-04-15T10:39:24.742Z,33.64
2023-04-15T10:40:24.770Z,33.86
2023-04-15T10:41:24.853Z,34.21
2023-04-15T10:42:24.892Z,34.78
2023-04-15T10:43:24.855Z,34.67
2023-04-15T10:44:24.908Z,35.37
2023-04-15T10:45:24.900Z,35.49
2023-04-15T10:46:25.035Z,35.05
2023-04-15T10:47:25.086Z,35.04
2023-04-15T10:48:25.086Z,34.96
2023-04-15T10:49:25.117Z,34.14
2023-04-15T10:50:25.160Z,34.05
2023-04-15T10:51:25.162Z,34.29
2023-04-15T10:52:25.271Z,34.01
2023-04-15T10:53:25.232Z,33.90
2023-04-15T10:54:25.315Z,33.69
2023-04-15T10:55:25.316Z,33.68
2023-04-15T10:56:25.385Z,33.85
2023-04-15T10:57:25.475Z,33.41
2023-04-15T10:58:25.489Z,33.60
2023-04-15T10:59:25.532Z,33.29
2023-04-15T11:00:25.655Z,33.31
2023-04-15T11:01:25.644Z,33.40
2023-04-15T11:02:26.397Z,33.43
2023-04-15T11:03:25.746Z,33.40
2023-04-15T11:04:27.024Z,33.39
2023-04-15T11:05:25.782Z,33.52
2023-04-15T11:06:25.828Z,34.06
2023-04-15T11:07:25.837Z,34.38
2023-04-15T11:08:25.836Z,34.71
2023-04-15T11:09:25.882Z,34.67
2023-04-15T11:10:26.005Z,34.75
2023-04-15T11:11:25.982Z,34.17
2023-04-15T11:12:25.985Z,33.91
2023-04-15T11:13:25.932Z,32.78
2023-04-15T11:14:26.087Z,32.25
2023-04-15T11:15:26.018Z,32.09
2023-04-15T11:16:26.155Z,32.03
2023-04-15T11:17:26.136Z,31.94
2023-04-15T11:18:26.126Z,31.97
2023-04-15T11:19:26.207Z,32.43
2023-04-15T11:20:26.235Z,32.91
2023-04-15T11:21:26.286Z,33.10
2023-04-15T11:22:26.301Z,33.28
2023-04-15T11:23:26.269Z,32.38
2023-04-15T11:24:26.309Z,31.96
2023-04-15T11:25:26.366Z,31.50
2023-04-15T11:26:26.425Z,31.70
2023-04-15T11:27:26.423Z,31.99
2023-04-15T11:28:26.448Z,32.56
2023-04-15T11:29:26.525Z,33.13
2023-04-15T11:30:26.507Z,33.03
2023-04-15T11:31:26.596Z,33.68
2023-04-15T11:32:26.560Z,33.30
2023-04-15T11:33:26.540Z,33.24
2023-04-15T11:34:26.620Z,33.65
2023-04-15T11:35:26.667Z,33.46
2023-04-15T11:36:27.055Z,33.93
2023-04-15T11:37:26.715Z,34.44
2023-04-15T11:38:26.727Z,34.50
2023-04-15T11:39:26.774Z,34.51
2023-04-15T11:40:26.811Z,34.59
2023-04-15T11:41:26.812Z,34.65
2023-04-15T11:42:31.450Z,35.05
2023-04-15T11:43:27.852Z,35.29
2023-04-15T11:44:26.911Z,35.26
2023-04-15T11:45:26.878Z,35.40
2023-04-15T11:46:26.794Z,35.44
2023-04-15T11:47:26.827Z,34.68
2023-04-15T11:48:26.794Z,34.68
2023-04-15T11:49:26.802Z,34.46
2023-04-15T11:50:26.773Z,34.34
2023-04-15T11:51:26.864Z,34.58
2023-04-15T11:52:26.786Z,35.25
2023-04-15T11:53:26.760Z,35.44
2023-04-15T11:54:26.779Z,35.27
2023-04-15T11:55:26.768Z,35.47
2023-04-15T11:56:26.799Z,35.88
2023-04-15T11:57:26.726Z,36.57
2023-04-15T11:58:26.769Z,36.30
2023-04-15T11:59:38.999Z,35.77
2023-04-15T12:00:27.818Z,35.46
2023-04-15T12:01:26.799Z,35.94
2023-04-15T12:02:26.890Z,35.73
2023-04-15T12:03:26.875Z,35.91
2023-04-15T12:04:26.955Z,35.70
2023-04-15T12:05:26.803Z,35.54
2023-04-15T12:06:26.793Z,35.78
2023-04-15T12:07:26.759Z,35.65
2023-04-15T12:08:26.798Z,35.30
2023-04-15T12:09:26.731Z,35.30
2023-04-15T12:10:26.745Z,35.37
2023-04-15T12:11:26.724Z,35.11
2023-04-15T12:12:26.790Z,34.61
2023-04-15T12:13:26.753Z,34.41
2023-04-15T12:14:26.882Z,34.09
2023-04-15T12:15:26.900Z,33.92
2023-04-15T12:16:26.910Z,33.59
2023-04-15T12:17:27.085Z,33.29
2023-04-15T12:18:26.996Z,33.43
2023-04-15T12:19:27.081Z,33.52
2023-04-15T12:20:27.082Z,33.49
2023-04-15T12:21:27.157Z,33.67
2023-04-15T12:22:27.134Z,33.72
2023-04-15T12:23:27.182Z,33.73
2023-04-15T12:24:27.223Z,33.42
2023-04-15T12:25:27.237Z,33.45
2023-04-15T12:26:27.275Z,33.41
2023-04-15T12:27:29.632Z,33.41
2023-04-15T12:28:27.509Z,33.56
2023-04-15T12:29:27.425Z,33.38
2023-04-15T12:30:27.511Z,32.88
2023-04-15T12:31:27.585Z,32.99
2023-04-15T12:32:27.576Z,33.37
2023-04-15T12:33:27.607Z,33.67
2023-04-15T12:34:27.625Z,33.58
2023-04-15T12:35:27.581Z,33.14
2023-04-15T12:36:27.600Z,33.87
2023-04-15T12:37:28.064Z,33.97
2023-04-15T12:38:27.665Z,34.45
2023-04-15T12:39:29.261Z,34.16
2023-04-15T12:40:27.697Z,34.16
2023-04-15T12:41:27.705Z,34.21
2023-04-15T12:42:27.733Z,33.71
2023-04-15T12:43:27.756Z,33.63
2023-04-15T12:44:27.715Z,33.77
2023-04-15T12:45:29.490Z,33.82
2023-04-15T12:46:27.694Z,33.67
2023-04-15T12:47:27.761Z,33.55
2023-04-15T12:48:27.754Z,33.46
2023-04-15T12:49:27.720Z,34.08
2023-04-15T12:50:27.806Z,33.96
2023-04-15T12:51:28.127Z,34.11
2023-04-15T12:52:27.842Z,34.32